Time;durP1;ratioP1;P1;durP2;ratioP2;P2;SDS_P1;SDS_P2;PMS_P1;PMS_P2;Temp;Humidity;BMP_temperature;BMP_pressure;BME280_temperature;BME280_humidity;BME280_pressure;Samples;Min_cycle;Max_cycle;Signal;HPM_P1;HPM_P2
2021/07/15 00:01:35;;;;;;;8.35;6.65;;;24.10;67.50;;;;;;5125432;28;20020;-91
2021/07/15 00:04:00;;;;;;;8.43;6.68;;;24.00;67.80;;;;;;5125700;28;20024;-90
2021/07/15 00:06:26;;;;;;;8.10;6.75;;;24.00;68.20;;;;;;5127768;28;20024;-91
2021/07/15 00:08:56;;;;;;;7.05;6.35;;;23.90;68.40;;;;;;5127698;28;20035;-91
2021/07/15 00:11:26;;;;;;;7.43;6.25;;;23.90;68.60;;;;;;5128863;28;20115;-91
2021/07/15 00:13:54;;;;;;;6.70;6.00;;;23.90;68.80;;;;;;5131346;28;20023;-91
2021/07/15 00:16:22;;;;;;;6.82;6.13;;;23.90;69.10;;;;;;5130185;28;20023;-91
2021/07/15 00:18:49;;;;;;;6.90;6.07;;;23.80;69.40;;;;;;5129962;28;20023;-91
2021/07/15 00:21:18;;;;;;;9.40;6.75;;;23.80;69.70;;;;;;5129432;28;20024;-91
2021/07/15 00:23:45;;;;;;;7.55;6.57;;;23.70;70.00;;;;;;5129216;28;20028;-91
2021/07/15 00:26:11;;;;;;;7.38;6.60;;;23.70;70.40;;;;;;5128576;28;20035;-91
2021/07/15 00:28:38;;;;;;;7.18;6.47;;;23.60;70.80;;;;;;5129415;28;20030;-91
2021/07/15 00:31:09;;;;;;;8.30;6.97;;;23.60;71.30;;;;;;5130126;28;20034;-91
2021/07/15 00:33:35;;;;;;;8.05;6.20;;;23.60;71.40;;;;;;5129449;28;20035;-92
2021/07/15 00:36:02;;;;;;;8.30;7.32;;;23.50;71.60;;;;;;5131032;28;20024;-90
2021/07/15 00:38:29;;;;;;;8.52;6.90;;;23.50;72.00;;;;;;5128834;28;20091;-91
2021/07/15 00:40:55;;;;;;;11.02;8.00;;;23.50;72.40;;;;;;5130191;28;20030;-91
2021/07/15 00:43:22;;;;;;;8.07;6.70;;;23.50;72.60;;;;;;5131649;28;20024;-91
2021/07/15 00:45:48;;;;;;;7.35;6.47;;;23.40;72.70;;;;;;5130410;28;20036;-91
2021/07/15 00:48:14;;;;;;;8.90;7.75;;;23.40;73.00;;;;;;5130276;28;20055;-91
2021/07/15 00:50:41;;;;;;;8.77;6.97;;;23.30;73.00;;;;;;5131604;28;20024;-91
2021/07/15 00:53:08;;;;;;;10.10;6.88;;;23.30;73.10;;;;;;5130407;28;20019;-92
2021/07/15 00:55:40;;;;;;;10.38;6.47;;;23.30;73.10;;;;;;5130188;28;20027;-91
2021/07/15 00:58:09;;;;;;;7.82;6.53;;;23.30;73.20;;;;;;5130795;28;20023;-91
2021/07/15 01:00:37;;;;;;;8.00;6.40;;;23.30;73.40;;;;;;5131166;28;20024;-91
2021/07/15 01:03:04;;;;;;;9.82;6.70;;;23.20;73.30;;;;;;5129780;28;20055;-91
2021/07/15 01:05:35;;;;;;;7.78;6.47;;;23.20;73.50;;;;;;5130188;28;20051;-91
2021/07/15 01:08:04;;;;;;;8.57;6.78;;;23.20;73.60;;;;;;5131210;28;20019;-91
2021/07/15 01:10:33;;;;;;;11.18;6.78;;;23.20;73.70;;;;;;5130613;28;20046;-91
2021/07/15 01:13:15;;;;;;;10.73;7.18;;;23.10;73.90;;;;;;5129434;28;20031;-91
2021/07/15 01:16:18;;;;;;;7.43;6.65;;;23.10;74.00;;;;;;5129960;28;20038;-91
2021/07/15 01:19:06;;;;;;;7.80;6.70;;;23.10;74.50;;;;;;5131876;28;20020;-90
2021/07/15 01:22:09;;;;;;;6.97;6.28;;;23.00;75.00;;;;;;5133206;28;20032;-90
2021/07/15 01:25:12;;;;;;;8.43;7.17;;;23.00;75.30;;;;;;5133397;28;20028;-90
2021/07/15 01:27:46;;;;;;;8.20;6.22;;;23.00;74.40;;;;;;5132645;28;20268;-89
2021/07/15 01:30:21;;;;;;;8.32;6.03;;;22.90;74.40;;;;;;5131500;28;20026;-90
2021/07/15 01:33:15;;;;;;;9.07;6.32;;;22.90;74.30;;;;;;5134077;28;20020;-90
2021/07/15 01:35:44;;;;;;;;;;;22.90;74.50;;;;;;5130073;28;20038;-91
2021/07/15 01:38:13;;;;;;;7.43;5.72;;;22.80;75.00;;;;;;5129473;28;19908;-91
2021/07/15 01:40:58;;;;;;;9.18;6.53;;;22.80;74.00;;;;;;5130847;28;20036;-92
2021/07/15 01:43:33;;;;;;;6.63;6.00;;;22.80;73.90;;;;;;5129808;28;20455;-91
2021/07/15 01:46:00;;;;;;;7.32;6.32;;;22.80;73.90;;;;;;5129063;28;20032;-91
2021/07/15 01:48:26;;;;;;;8.27;6.20;;;22.80;73.70;;;;;;5128513;28;20024;-91
2021/07/15 01:50:53;;;;;;;6.55;5.53;;;22.80;73.60;;;;;;5126100;28;20020;-91
2021/07/15 01:53:19;;;;;;;7.15;5.85;;;22.80;73.60;;;;;;5125439;28;20038;-91
2021/07/15 01:55:46;;;;;;;7.30;4.93;;;22.80;73.60;;;;;;5126096;28;20031;-91
2021/07/15 01:58:13;;;;;;;8.77;6.20;;;22.80;73.70;;;;;;5126968;28;20103;-91
2021/07/15 02:00:40;;;;;;;7.20;5.43;;;22.80;73.70;;;;;;5125647;28;20078;-91
2021/07/15 02:03:07;;;;;;;6.90;5.15;;;22.70;73.70;;;;;;5125815;28;20106;-91
2021/07/15 02:05:34;;;;;;;7.30;5.68;;;22.70;73.60;;;;;;5125422;28;20111;-91
2021/07/15 02:08:01;;;;;;;5.88;5.28;;;22.70;73.60;;;;;;5127958;28;20031;-92
2021/07/15 02:10:28;;;;;;;6.07;5.47;;;22.70;74.10;;;;;;5129626;28;20045;-91
2021/07/15 02:12:55;;;;;;;6.40;5.70;;;22.70;73.60;;;;;;5127178;28;20027;-92
2021/07/15 02:15:24;;;;;;;6.35;5.22;;;22.70;73.50;;;;;;5127837;28;20038;-91
2021/07/15 02:17:52;;;;;;;6.63;5.57;;;22.70;73.50;;;;;;5131163;28;20106;-92
2021/07/15 02:20:19;;;;;;;7.40;5.40;;;22.70;73.50;;;;;;5130156;28;20032;-91
2021/07/15 02:22:47;;;;;;;5.38;4.82;;;22.70;73.60;;;;;;5129145;28;20100;-91
2021/07/15 02:25:16;;;;;;;6.50;5.18;;;22.70;73.50;;;;;;5130163;28;20055;-91
2021/07/15 02:27:45;;;;;;;7.18;5.63;;;22.70;73.60;;;;;;5130542;28;20032;-91
2021/07/15 02:30:15;;;;;;;7.10;4.35;;;22.70;73.60;;;;;;5130876;28;20020;-90
2021/07/15 02:32:56;;;;;;;11.77;4.95;;;22.60;73.60;;;;;;5129577;28;20028;-91
2021/07/15 02:35:24;;;;;;;6.78;5.40;;;22.70;73.70;;;;;;5128785;28;20077;-91
2021/07/15 02:37:57;;;;;;;6.43;5.15;;;22.70;73.70;;;;;;5128170;28;20036;-91
2021/07/15 02:40:23;;;;;;;6.00;5.40;;;22.70;73.80;;;;;;5130465;28;20049;-91
2021/07/15 02:42:49;;;;;;;7.18;5.15;;;22.70;73.80;;;;;;5130291;28;20027;-91
2021/07/15 02:45:20;;;;;;;6.97;5.05;;;22.70;73.80;;;;;;5130063;28;20034;-91
2021/07/15 02:47:48;;;;;;;5.13;4.32;;;22.70;73.80;;;;;;5130101;28;20129;-91
2021/07/15 02:50:16;;;;;;;5.60;5.00;;;22.80;73.90;;;;;;5129575;28;20054;-91
2021/07/15 02:52:43;;;;;;;6.07;5.47;;;22.80;73.90;;;;;;5128039;28;20024;-91
2021/07/15 02:55:11;;;;;;;5.78;4.60;;;22.80;73.90;;;;;;5128677;28;20035;-91
2021/07/15 02:58:08;;;;;;;5.90;4.88;;;22.80;73.90;;;;;;5130302;28;20032;-90
2021/07/15 03:00:44;;;;;;;7.85;5.53;;;22.80;74.00;;;;;;5129055;28;20091;-91
2021/07/15 03:03:21;;;;;;;6.35;5.30;;;22.90;74.00;;;;;;5129029;28;20035;-91
2021/07/15 03:06:10;;;;;;;5.70;4.93;;;22.90;74.00;;;;;;5129477;28;20050;-91
2021/07/15 03:08:46;;;;;;;6.70;5.90;;;22.90;74.10;;;;;;5127797;28;20031;-91
2021/07/15 03:11:12;;;;;;;7.10;5.68;;;23.00;74.20;;;;;;5129088;28;20031;-91
2021/07/15 03:13:40;;;;;;;6.18;5.32;;;23.00;74.30;;;;;;5125799;28;20027;-91
2021/07/15 03:16:06;;;;;;;8.27;5.30;;;23.00;74.30;;;;;;5129733;28;20034;-91
2021/07/15 03:18:36;;;;;;;6.20;5.60;;;23.10;74.30;;;;;;5130343;28;20046;-91
2021/07/15 03:21:06;;;;;;;6.22;5.57;;;23.10;74.40;;;;;;5129873;28;20034;-90
2021/07/15 03:23:36;;;;;;;7.78;6.07;;;23.10;74.40;;;;;;5130152;28;20041;-90
2021/07/15 03:26:02;;;;;;;6.20;5.35;;;23.20;74.30;;;;;;5130582;28;20031;-91
2021/07/15 03:28:36;;;;;;;6.97;5.40;;;23.20;74.10;;;;;;5132396;28;20088;-90
2021/07/15 03:31:08;;;;;;;8.98;5.97;;;23.30;74.00;;;;;;5130712;28;20023;-91
2021/07/15 03:33:36;;;;;;;6.97;5.32;;;23.40;73.90;;;;;;5127724;28;20062;-91
2021/07/15 03:36:04;;;;;;;7.10;5.95;;;23.40;73.80;;;;;;5127614;28;20031;-91
2021/07/15 03:38:34;;;;;;;6.15;5.55;;;23.50;73.60;;;;;;5126134;28;20024;-91
2021/07/15 03:41:04;;;;;;;6.22;5.55;;;23.50;73.50;;;;;;5128522;28;20045;-91
2021/07/15 03:43:33;;;;;;;6.43;5.75;;;23.60;73.20;;;;;;5125016;28;20041;-91
2021/07/15 03:46:00;;;;;;;7.57;5.68;;;23.70;72.90;;;;;;5125721;28;20103;-91
2021/07/15 03:48:27;;;;;;;12.65;5.18;;;23.80;72.60;;;;;;5128083;28;20036;-92
2021/07/15 03:50:59;;;;;;;6.03;5.38;;;23.80;72.30;;;;;;5128941;28;20028;-91
2021/07/15 03:53:25;;;;;;;6.05;5.10;;;23.90;72.00;;;;;;5127786;28;20023;-92
2021/07/15 03:55:52;;;;;;;5.55;4.97;;;24.00;71.60;;;;;;5127544;28;20028;-92
2021/07/15 03:58:18;;;;;;;8.45;5.43;;;24.10;71.20;;;;;;5125878;28;20042;-91
2021/07/15 04:00:45;;;;;;;7.38;5.22;;;24.20;70.60;;;;;;5125380;28;20023;-92
2021/07/15 04:03:19;;;;;;;9.25;5.38;;;24.20;70.20;;;;;;5127225;28;20056;-92
2021/07/15 04:05:46;;;;;;;5.82;4.82;;;24.30;70.00;;;;;;5125747;28;20044;-92
2021/07/15 04:08:13;;;;;;;6.18;4.55;;;24.30;69.60;;;;;;5128223;28;20051;-91
2021/07/15 04:10:43;;;;;;;6.60;5.07;;;24.40;70.10;;;;;;5128731;28;20047;-91
2021/07/15 04:13:12;;;;;;;6.28;5.38;;;24.50;69.20;;;;;;5130835;28;20019;-91
2021/07/15 04:15:44;;;;;;;6.57;4.88;;;24.60;68.90;;;;;;5130196;28;20061;-91
2021/07/15 04:18:12;;;;;;;6.63;5.40;;;24.70;68.50;;;;;;5126596;28;20036;-92
2021/07/15 04:20:40;;;;;;;8.52;4.40;;;24.80;68.20;;;;;;5131359;28;20081;-91
2021/07/15 04:23:07;;;;;;;5.47;4.50;;;24.90;68.00;;;;;;5127001;28;20024;-91
2021/07/15 04:25:35;;;;;;;5.00;4.30;;;25.00;67.40;;;;;;5126473;28;20027;-92
2021/07/15 04:28:03;;;;;;;4.85;3.65;;;25.10;66.70;;;;;;5127280;28;20028;-91
2021/07/15 04:30:29;;;;;;;5.60;3.88;;;25.20;65.70;;;;;;5126893;28;20051;-91
2021/07/15 04:33:14;;;;;;;4.65;4.07;;;25.30;65.20;;;;;;5124849;28;20056;-92
2021/07/15 04:35:40;;;;;;;5.18;4.10;;;25.40;64.60;;;;;;5127036;28;20042;-91
2021/07/15 04:38:07;;;;;;;6.35;4.28;;;25.60;64.40;;;;;;5127524;28;20024;-91
2021/07/15 04:40:34;;;;;;;10.27;4.03;;;25.70;63.90;;;;;;5127092;28;20024;-92
2021/07/15 04:43:08;;;;;;;4.57;4.05;;;25.80;63.60;;;;;;5123963;28;20029;-92
2021/07/15 04:45:36;;;;;;;6.32;4.00;;;25.90;63.00;;;;;;5123033;28;20108;-91
2021/07/15 04:48:03;;;;;;;5.53;4.13;;;26.00;62.30;;;;;;5124952;28;20023;-92
2021/07/15 04:50:32;;;;;;;7.32;3.72;;;26.10;61.80;;;;;;5123686;28;20024;-91
2021/07/15 04:53:05;;;;;;;4.60;3.60;;;26.20;61.50;;;;;;5118454;28;20016;-91
2021/07/15 04:55:31;;;;;;;6.18;3.47;;;26.30;61.00;;;;;;5101218;28;20036;-91
2021/07/15 04:57:59;;;;;;;4.50;4.10;;;26.50;61.00;;;;;;5099650;28;20169;-91
2021/07/15 05:00:26;;;;;;;5.47;3.80;;;26.50;60.40;;;;;;5098125;28;20035;-92
2021/07/15 05:03:09;;;;;;;4.35;3.95;;;26.60;60.10;;;;;;5099406;28;20173;-92
2021/07/15 05:05:35;;;;;;;4.65;3.67;;;26.70;59.70;;;;;;5102479;28;20055;-91
2021/07/15 05:08:04;;;;;;;4.28;3.88;;;26.80;59.60;;;;;;5103057;28;20020;-91
2021/07/15 05:10:30;;;;;;;6.60;3.97;;;26.90;59.60;;;;;;5104000;28;20054;-91
2021/07/15 05:12:55;;;;;;;6.85;3.78;;;27.10;59.40;;;;;;5101286;28;20020;-91
2021/07/15 05:15:21;;;;;;;5.22;3.83;;;27.20;59.00;;;;;;5104508;28;20087;-90
2021/07/15 05:17:47;;;;;;;4.35;3.40;;;27.30;58.60;;;;;;5104780;28;20048;-91
2021/07/15 05:20:16;;;;;;;4.65;4.05;;;27.40;58.10;;;;;;5102795;28;20039;-91
2021/07/15 05:22:42;;;;;;;5.75;3.78;;;27.60;57.70;;;;;;5101358;28;20096;-91
2021/07/15 05:25:08;;;;;;;3.85;3.45;;;27.60;57.30;;;;;;5107421;28;20028;-90
2021/07/15 05:27:34;;;;;;;4.35;3.30;;;27.80;57.00;;;;;;5107724;28;20123;-91
2021/07/15 05:30:00;;;;;;;8.18;3.45;;;27.90;56.80;;;;;;5109074;28;20028;-90
2021/07/15 05:32:26;;;;;;;6.78;3.83;;;28.00;56.50;;;;;;5113170;28;20035;-91
2021/07/15 05:34:52;;;;;;;4.32;3.75;;;28.10;56.20;;;;;;5113385;28;20028;-90
2021/07/15 05:37:20;;;;;;;4.47;4.05;;;28.20;55.60;;;;;;5111738;28;20028;-91
2021/07/15 05:39:46;;;;;;;3.58;3.22;;;28.40;55.00;;;;;;5105749;28;20024;-91
2021/07/15 05:42:12;;;;;;;3.60;3.28;;;28.40;54.20;;;;;;5106478;28;20406;-91
2021/07/15 05:44:39;;;;;;;3.95;3.47;;;28.50;54.10;;;;;;5107420;28;20032;-91
2021/07/15 05:47:11;;;;;;;3.67;3.35;;;28.60;54.00;;;;;;5107646;28;20038;-91
2021/07/15 05:49:38;;;;;;;4.80;3.40;;;28.60;53.00;;;;;;5103382;28;20027;-91
2021/07/15 05:52:08;;;;;;;4.25;3.85;;;28.70;52.70;;;;;;5106610;28;20039;-91
2021/07/15 05:54:38;;;;;;;3.58;3.10;;;28.70;52.00;;;;;;5099478;28;20028;-92
2021/07/15 05:57:09;;;;;;;6.60;3.10;;;28.80;51.70;;;;;;5101169;28;20024;-92
2021/07/15 05:59:37;;;;;;;3.53;2.92;;;28.80;51.00;;;;;;5104081;28;20028;-92
2021/07/15 06:02:09;;;;;;;4.45;3.15;;;28.80;50.60;;;;;;5101163;28;20048;-92
2021/07/15 06:04:35;;;;;;;3.60;3.22;;;28.80;50.80;;;;;;5098514;28;20051;-92
2021/07/15 06:07:03;;;;;;;4.40;3.00;;;28.90;50.40;;;;;;5096426;28;20534;-92
2021/07/15 06:09:29;;;;;;;5.20;3.00;;;29.00;50.20;;;;;;5097471;28;20028;-92
2021/07/15 06:12:00;;;;;;;3.95;3.15;;;29.10;50.20;;;;;;5100739;28;20096;-90
2021/07/15 06:14:26;;;;;;;3.97;3.30;;;29.10;50.00;;;;;;5099837;28;20028;-93
2021/07/15 06:16:55;;;;;;;3.92;3.53;;;29.10;50.30;;;;;;5097374;28;20024;-92
2021/07/15 06:19:21;;;;;;;7.72;3.15;;;29.20;50.30;;;;;;5099844;28;20031;-92
2021/07/15 06:22:07;;;;;;;3.55;3.00;;;29.30;50.20;;;;;;5102821;28;20028;-92
2021/07/15 06:24:33;;;;;;;5.93;3.55;;;29.40;50.20;;;;;;5100885;28;20028;-92
2021/07/15 06:26:59;;;;;;;5.78;3.03;;;29.50;50.30;;;;;;5106880;28;20036;-91
2021/07/15 06:29:26;;;;;;;4.20;3.72;;;29.60;50.40;;;;;;5104015;28;20107;-93
2021/07/15 06:31:52;;;;;;;4.57;3.45;;;29.70;50.50;;;;;;5105862;28;20065;-91
2021/07/15 06:34:21;;;;;;;4.20;3.80;;;29.90;50.50;;;;;;5105675;28;20035;-92
2021/07/15 06:36:51;;;;;;;4.13;3.72;;;30.00;50.50;;;;;;5104124;28;20043;-92
2021/07/15 06:39:17;;;;;;;4.82;4.38;;;30.10;50.10;;;;;;5107125;28;20028;-92
2021/07/15 06:41:43;;;;;;;3.45;3.15;;;30.20;49.80;;;;;;5107591;28;20028;-91
2021/07/15 06:44:11;;;;;;;4.90;3.45;;;30.30;49.70;;;;;;5107916;28;20028;-92
2021/07/15 06:46:38;;;;;;;3.70;3.30;;;30.50;49.80;;;;;;5107587;28;20023;-91
2021/07/15 06:49:04;;;;;;;5.05;3.40;;;30.60;49.60;;;;;;5105174;28;20200;-92
2021/07/15 06:51:33;;;;;;;3.88;3.25;;;30.70;49.30;;;;;;5108056;28;20039;-92
2021/07/15 06:54:02;;;;;;;4.18;3.78;;;30.80;49.10;;;;;;5107302;28;20028;-91
2021/07/15 06:56:28;;;;;;;3.50;3.20;;;30.90;48.80;;;;;;5106581;28;20016;-92
2021/07/15 06:58:54;;;;;;;8.95;7.57;;;31.00;48.50;;;;;;5105506;28;20027;-92
2021/07/15 07:01:20;;;;;;;19.38;17.20;;;31.10;48.10;;;;;;5105123;28;20042;-90
2021/07/15 07:03:46;;;;;;;10.80;8.48;;;31.10;48.00;;;;;;5109261;28;20008;-91
2021/07/15 07:06:29;;;;;;;14.68;12.35;;;31.20;47.70;;;;;;5107386;28;20054;-91
2021/07/15 07:08:57;;;;;;;8.52;7.53;;;31.20;47.20;;;;;;5104999;28;20490;-90
2021/07/15 07:11:23;;;;;;;8.90;7.53;;;31.30;47.10;;;;;;5107083;28;20045;-90
2021/07/15 07:13:51;;;;;;;11.57;7.90;;;31.30;46.90;;;;;;5107511;28;20063;-90
2021/07/15 07:16:17;;;;;;;12.38;7.93;;;31.40;47.00;;;;;;5109540;28;20020;-90
2021/07/15 07:18:43;;;;;;;9.27;8.13;;;31.60;47.10;;;;;;5108491;28;20575;-90
2021/07/15 07:21:09;;;;;;;7.20;5.65;;;31.70;46.80;;;;;;5109912;28;20024;-90
2021/07/15 07:23:34;;;;;;;3.70;3.38;;;31.80;46.30;;;;;;5109937;28;20078;-91
2021/07/15 07:26:06;;;;;;;7.50;4.60;;;31.90;46.00;;;;;;5111622;28;20089;-92
2021/07/15 07:28:33;;;;;;;5.88;5.05;;;32.00;45.40;;;;;;5111230;28;20115;-91
2021/07/15 07:31:01;;;;;;;5.07;3.85;;;32.00;45.10;;;;;;5111563;28;20032;-92
2021/07/15 07:33:27;;;;;;;6.22;4.28;;;32.10;44.70;;;;;;5110369;28;20055;-90
2021/07/15 07:35:52;;;;;;;3.75;3.35;;;32.20;44.80;;;;;;5111990;28;20043;-90
2021/07/15 07:38:18;;;;;;;4.20;3.80;;;32.20;44.50;;;;;;5113188;28;20028;-91
2021/07/15 07:40:48;;;;;;;5.43;3.35;;;32.30;44.40;;;;;;5113046;28;20110;-90
2021/07/15 07:43:14;;;;;;;7.00;3.38;;;32.40;44.30;;;;;;5113848;28;20016;-90
2021/07/15 07:45:40;;;;;;;7.40;3.80;;;32.50;44.30;;;;;;5113368;28;20036;-90
2021/07/15 07:48:09;;;;;;;5.60;4.30;;;32.50;43.70;;;;;;5114392;28;20020;-91
2021/07/15 07:50:35;;;;;;;9.68;6.10;;;32.60;43.90;;;;;;5108642;28;20020;-92
2021/07/15 07:53:01;;;;;;;9.32;7.35;;;32.60;43.80;;;;;;5103848;28;20028;-91
2021/07/15 07:55:27;;;;;;;10.23;7.40;;;32.60;43.50;;;;;;5112021;28;20042;-90
2021/07/15 07:57:53;;;;;;;7.80;5.80;;;32.70;43.40;;;;;;5112576;28;20043;-92
2021/07/15 08:00:20;;;;;;;5.55;4.70;;;32.70;43.00;;;;;;5111618;28;20387;-91
2021/07/15 08:02:48;;;;;;;8.05;5.35;;;32.80;42.80;;;;;;5114043;28;20028;-91
2021/07/15 08:05:22;;;;;;;7.90;4.97;;;32.80;42.90;;;;;;5113188;28;20120;-92
2021/07/15 08:07:52;;;;;;;6.97;4.38;;;32.90;42.90;;;;;;5112303;28;20016;-91
2021/07/15 08:10:19;;;;;;;9.55;6.40;;;33.00;42.70;;;;;;5110740;28;20028;-92
2021/07/15 08:12:45;;;;;;;9.40;6.80;;;33.10;42.50;;;;;;5107411;28;20024;-91
2021/07/15 08:15:12;;;;;;;12.20;7.93;;;33.20;42.60;;;;;;5107682;28;20028;-91
2021/07/15 08:17:39;;;;;;;15.65;9.35;;;33.20;42.60;;;;;;5107923;28;20023;-90
2021/07/15 08:20:06;;;;;;;10.18;7.43;;;33.30;42.60;;;;;;5111485;28;20020;-91
2021/07/15 08:22:32;;;;;;;6.07;4.97;;;33.20;42.70;;;;;;5109495;28;20092;-91
2021/07/15 08:25:01;;;;;;;4.70;3.65;;;33.30;42.60;;;;;;5107984;28;20032;-90
2021/07/15 08:27:28;;;;;;;4.70;3.38;;;33.30;42.20;;;;;;5110792;28;20108;-91
2021/07/15 08:29:57;;;;;;;4.63;3.65;;;33.40;42.30;;;;;;5113814;28;20073;-90
2021/07/15 08:32:26;;;;;;;6.50;3.58;;;33.50;41.90;;;;;;5109253;28;20020;-91
2021/07/15 08:34:52;;;;;;;6.95;3.97;;;33.60;41.80;;;;;;5111583;28;20087;-91
2021/07/15 08:37:18;;;;;;;6.55;3.25;;;33.70;41.60;;;;;;5095101;28;20078;-91
2021/07/15 08:39:44;;;;;;;4.22;2.65;;;33.70;41.60;;;;;;5113920;28;20028;-92
2021/07/15 08:42:10;;;;;;;3.85;3.13;;;33.80;41.40;;;;;;5115258;28;20032;-91
2021/07/15 08:44:40;;;;;;;4.20;2.30;;;33.90;41.10;;;;;;5111971;28;20427;-91
2021/07/15 08:47:08;;;;;;;3.13;2.72;;;33.90;40.90;;;;;;5109385;28;20028;-92
2021/07/15 08:49:40;;;;;;;3.53;3.17;;;34.00;41.10;;;;;;5109631;28;20024;-92
2021/07/15 08:52:06;;;;;;;3.58;2.70;;;34.00;41.00;;;;;;5107996;28;20024;-91
2021/07/15 08:54:55;;;;;;;3.08;2.70;;;34.10;41.10;;;;;;5112545;28;20047;-91
2021/07/15 08:57:21;;;;;;;8.15;4.50;;;34.10;40.80;;;;;;5105248;28;20431;-92
2021/07/15 08:59:49;;;;;;;7.20;3.35;;;34.10;40.60;;;;;;5109416;28;20029;-91
2021/07/15 09:02:18;;;;;;;9.90;3.35;;;34.10;40.50;;;;;;5108694;28;20443;-91
2021/07/15 09:04:45;;;;;;;5.82;3.50;;;34.20;40.70;;;;;;5104371;28;20064;-89
2021/07/15 09:07:11;;;;;;;4.43;3.40;;;34.30;40.80;;;;;;5105636;28;20117;-90
2021/07/15 09:09:37;;;;;;;3.67;3.33;;;34.30;40.80;;;;;;5101537;28;20029;-88
2021/07/15 09:12:06;;;;;;;3.58;2.92;;;34.30;40.90;;;;;;5108083;28;20128;-89
2021/07/15 09:14:50;;;;;;;7.25;2.90;;;34.30;41.20;;;;;;5129188;28;20070;-90
2021/07/15 09:17:28;;;;;;;5.57;3.22;;;34.30;41.30;;;;;;5129920;28;20034;-92
2021/07/15 09:19:54;;;;;;;4.72;3.20;;;34.40;41.40;;;;;;5128702;28;20051;-90
2021/07/15 09:22:21;;;;;;;4.25;3.05;;;34.30;41.40;;;;;;5130520;28;20016;-91
2021/07/15 09:24:47;;;;;;;3.92;3.33;;;34.30;41.50;;;;;;5125085;27;20039;-91
2021/07/15 09:27:15;;;;;;;3.47;2.72;;;34.30;41.60;;;;;;5129568;28;20020;-91
2021/07/15 09:29:42;;;;;;;6.97;3.38;;;34.30;41.80;;;;;;5125871;28;20054;-91
2021/07/15 09:32:09;;;;;;;3.33;2.80;;;34.40;41.80;;;;;;5127629;28;20032;-90
2021/07/15 09:34:36;;;;;;;3.25;2.92;;;34.40;41.70;;;;;;5125853;28;20039;-90
2021/07/15 09:37:11;;;;;;;3.70;2.97;;;34.50;42.50;;;;;;5126060;28;20038;-92
2021/07/15 09:39:48;;;;;;;4.20;3.33;;;34.50;42.00;;;;;;5126469;28;20028;-90
2021/07/15 09:42:22;;;;;;;4.25;3.33;;;34.50;42.10;;;;;;5129873;28;20019;-91
2021/07/15 09:44:50;;;;;;;5.80;3.20;;;34.50;42.10;;;;;;5129540;28;20031;-91
2021/07/15 09:47:48;;;;;;;3.30;3.00;;;34.50;42.10;;;;;;5129878;28;20036;-92
2021/07/15 09:50:17;;;;;;;5.30;2.67;;;34.50;42.20;;;;;;5127122;28;20076;-92
2021/07/15 09:52:47;;;;;;;3.47;3.17;;;34.40;42.40;;;;;;5128874;28;20023;-91
2021/07/15 09:55:25;;;;;;;3.33;2.83;;;34.50;42.70;;;;;;5126426;28;20034;-90
2021/07/15 09:58:05;;;;;;;3.28;2.90;;;34.40;42.50;;;;;;5130525;28;20033;-91
2021/07/15 10:00:38;;;;;;;5.65;2.70;;;34.40;42.50;;;;;;5129868;28;20023;-91
2021/07/15 10:03:12;;;;;;;6.03;3.40;;;34.40;42.30;;;;;;5131789;28;20024;-91
2021/07/15 10:05:49;;;;;;;2.75;2.55;;;34.40;42.20;;;;;;5129707;28;20054;-90
2021/07/15 10:08:27;;;;;;;3.70;3.30;;;34.40;42.20;;;;;;5128731;28;20010;-90
2021/07/15 10:10:55;;;;;;;3.00;2.60;;;34.30;42.00;;;;;;5128001;28;20034;-90
2021/07/15 10:13:24;;;;;;;3.88;2.92;;;34.30;42.10;;;;;;5118336;28;20059;-92
2021/07/15 10:15:52;;;;;;;3.30;2.70;;;34.40;41.80;;;;;;5125625;28;20034;-91
2021/07/15 10:18:45;;;;;;;2.88;2.58;;;34.40;41.90;;;;;;5128249;28;20023;-92
2021/07/15 10:21:14;;;;;;;4.22;2.80;;;34.40;41.50;;;;;;5125768;28;20024;-92
2021/07/15 10:23:44;;;;;;;3.03;2.78;;;34.40;41.50;;;;;;5127672;28;20031;-92
2021/07/15 10:26:12;;;;;;;3.22;2.92;;;34.40;41.00;;;;;;5131272;28;20070;-92
2021/07/15 10:28:42;;;;;;;3.65;2.80;;;34.30;41.20;;;;;;5132592;28;20028;-91
2021/07/15 10:31:16;;;;;;;3.78;3.13;;;34.30;41.20;;;;;;5133900;28;20043;-92
2021/07/15 10:33:43;;;;;;;4.40;2.63;;;34.30;41.30;;;;;;5129892;28;20020;-92
2021/07/15 10:36:10;;;;;;;2.50;2.30;;;34.40;41.30;;;;;;5126758;28;20031;-92
2021/07/15 10:38:41;;;;;;;4.07;2.83;;;34.40;41.00;;;;;;5125514;28;20032;-92
2021/07/15 10:41:11;;;;;;;3.00;2.80;;;34.50;41.20;;;;;;5122533;28;20076;-92
2021/07/15 10:43:38;;;;;;;2.67;2.47;;;34.50;40.80;;;;;;5127068;28;20027;-92
2021/07/15 10:46:10;;;;;;;6.82;2.65;;;34.40;40.60;;;;;;5117969;28;20059;-93
2021/07/15 10:48:37;;;;;;;8.27;2.77;;;34.40;40.60;;;;;;5127933;28;20026;-94
2021/07/15 10:51:05;;;;;;;4.90;2.85;;;34.40;40.60;;;;;;5126852;27;20048;-92
2021/07/15 10:53:35;;;;;;;3.30;3.00;;;34.40;40.70;;;;;;5129191;28;20034;-93
2021/07/15 10:56:05;;;;;;;3.03;2.60;;;34.50;40.80;;;;;;5100785;28;20028;-92
2021/07/15 10:58:52;;;;;;;3.10;2.83;;;34.40;40.70;;;;;;5113096;28;20030;-93
2021/07/15 11:04:06;;;;;;;3.38;2.70;;;34.30;40.60;;;;;;5118006;28;20046;-91
2021/07/15 11:06:42;;;;;;;2.58;2.38;;;34.30;40.70;;;;;;5119870;28;20057;-93
2021/07/15 11:09:11;;;;;;;3.05;2.70;;;34.30;40.70;;;;;;5121494;28;20063;-92
2021/07/15 11:11:42;;;;;;;3.13;2.83;;;34.40;40.70;;;;;;5119381;28;20032;-93
2021/07/15 11:14:47;;;;;;;3.20;2.90;;;34.40;40.60;;;;;;5120012;28;20470;-93
2021/07/15 11:17:29;;;;;;;5.03;2.80;;;34.40;40.60;;;;;;5103223;28;20170;-92
2021/07/15 11:20:08;;;;;;;3.40;3.10;;;34.40;40.50;;;;;;5101799;28;20004;-92
2021/07/15 11:22:50;;;;;;;4.13;3.00;;;34.40;40.40;;;;;;5116764;28;20039;-93
2021/07/15 11:25:28;;;;;;;5.43;3.33;;;34.40;40.60;;;;;;5121930;28;20042;-92
2021/07/15 11:27:56;;;;;;;3.25;2.95;;;34.40;40.50;;;;;;5119541;28;20034;-92
2021/07/15 11:30:37;;;;;;;3.78;3.38;;;34.50;40.70;;;;;;5126777;28;20031;-92
2021/07/15 11:35:51;;;;;;;6.68;3.25;;;34.40;40.50;;;;;;5117850;28;20032;-92
2021/07/15 11:38:26;;;;;;;3.28;2.97;;;34.40;40.60;;;;;;5115960;28;20032;-94
2021/07/15 11:40:59;;;;;;;3.17;2.88;;;34.30;40.60;;;;;;5117498;28;20032;-93
2021/07/15 11:43:32;;;;;;;5.45;3.03;;;34.20;40.70;;;;;;5107137;28;20027;-93
2021/07/15 11:46:09;;;;;;;3.45;3.15;;;34.10;40.70;;;;;;5114106;28;20122;-93
2021/07/15 11:49:12;;;;;;;3.47;2.90;;;34.10;40.90;;;;;;5113130;28;20038;-93
2021/07/15 11:51:47;;;;;;;2.97;2.72;;;34.00;41.40;;;;;;5114661;28;20036;-93
2021/07/15 11:54:29;;;;;;;3.60;3.00;;;34.00;41.70;;;;;;5116206;28;20039;-94
2021/07/15 11:57:13;;;;;;;3.03;2.67;;;34.00;42.20;;;;;;5114296;28;20023;-92
2021/07/15 11:59:51;;;;;;;2.70;2.50;;;34.00;41.70;;;;;;5118795;28;20103;-93
2021/07/15 12:02:20;;;;;;;4.25;3.00;;;34.10;41.10;;;;;;5110333;28;20455;-92
2021/07/15 12:05:20;;;;;;;2.95;2.70;;;34.10;41.00;;;;;;5119476;28;20054;-92
2021/07/15 12:07:50;;;;;;;3.30;3.00;;;34.10;39.60;;;;;;5132166;27;20035;-93
2021/07/15 12:10:27;;;;;;;2.78;2.58;;;34.20;40.50;;;;;;5125485;27;20035;-92
2021/07/15 12:12:57;;;;;;;4.22;2.83;;;34.30;40.50;;;;;;5124599;28;20027;-94
2021/07/15 12:15:26;;;;;;;3.35;2.80;;;34.50;40.00;;;;;;5119865;28;20104;-94
2021/07/15 12:17:54;;;;;;;4.05;3.05;;;34.70;40.10;;;;;;5117141;28;20026;-92
2021/07/15 12:20:22;;;;;;;2.80;2.60;;;35.00;40.30;;;;;;5116320;28;20027;-93
2021/07/15 12:22:55;;;;;;;4.75;2.72;;;35.30;40.50;;;;;;5116959;28;20054;-94
2021/07/15 12:25:29;;;;;;;3.03;2.83;;;35.70;40.40;;;;;;5120025;28;20501;-94
2021/07/15 12:27:57;;;;;;;3.63;3.28;;;36.20;39.70;;;;;;5125948;28;20027;-94
2021/07/15 12:30:38;;;;;;;3.63;3.33;;;36.60;39.80;;;;;;5122461;28;20116;-94
2021/07/15 12:33:04;;;;;;;4.50;3.40;;;36.90;39.40;;;;;;5099874;28;20126;-93
2021/07/15 12:35:33;;;;;;;3.47;3.10;;;37.30;39.40;;;;;;5106085;28;20124;-94
2021/07/15 12:38:13;;;;;;;3.08;2.78;;;37.60;39.30;;;;;;5105976;28;20028;-94
2021/07/15 12:40:39;;;;;;;3.50;3.00;;;37.80;38.90;;;;;;5104441;28;20173;-93
2021/07/15 12:43:17;;;;;;;4.22;2.92;;;38.10;38.80;;;;;;5112344;28;20047;-93
2021/07/15 12:45:47;;;;;;;3.30;3.00;;;38.50;38.30;;;;;;5115758;28;20505;-92
2021/07/15 12:48:16;;;;;;;2.83;2.63;;;38.80;38.20;;;;;;5098410;28;20038;-93
2021/07/15 12:50:46;;;;;;;3.08;2.78;;;39.10;38.00;;;;;;5115356;28;20032;-94
2021/07/15 12:53:24;;;;;;;3.13;2.92;;;39.40;37.80;;;;;;5116409;28;20084;-94
2021/07/15 12:55:57;;;;;;;3.85;3.20;;;39.70;37.50;;;;;;5116178;28;20040;-94
2021/07/15 12:58:23;;;;;;;2.80;2.60;;;40.10;36.80;;;;;;5115902;28;20043;-94
2021/07/15 13:00:50;;;;;;;3.78;2.88;;;40.40;37.20;;;;;;5115366;28;20081;-95
2021/07/15 13:03:19;;;;;;;3.55;2.88;;;40.70;37.00;;;;;;5115705;28;20063;-94
2021/07/15 13:05:46;;;;;;;3.78;3.00;;;41.00;36.50;;;;;;5116451;28;20047;-94
2021/07/15 13:08:12;;;;;;;3.35;3.08;;;41.00;36.30;;;;;;5117650;28;20119;-92